createdAt,value
2019-06-07T00:00:40.533Z,101346.95
2019-06-07T00:01:24.472Z,101347.92
2019-06-07T00:02:08.377Z,101341.13
2019-06-07T00:02:51.535Z,101346.56
2019-06-07T00:03:37.450Z,101344.72
2019-06-07T00:04:21.566Z,101340.88
2019-06-07T00:05:07.669Z,101342.59
2019-06-07T00:05:51.566Z,101343.11
2019-06-07T00:06:34.903Z,101343.11
2019-06-07T00:07:21.832Z,101340.40
2019-06-07T00:08:07.347Z,101345.44
2019-06-07T00:08:49.074Z,101348.16
2019-06-07T00:09:32.164Z,101343.21
2019-06-07T00:10:34.970Z,101343.70
2019-06-07T00:11:01.416Z,101340.11
2019-06-07T00:11:44.379Z,101341.95
2019-06-07T00:12:27.674Z,101344.32
2019-06-07T00:13:12.886Z,101343.55
2019-06-07T00:13:56.190Z,101344.91
2019-06-07T00:14:39.539Z,101345.39
2019-06-07T00:15:28.786Z,101353.92
2019-06-07T00:16:08.739Z,101348.98
2019-06-07T00:16:52.303Z,101345.14
2019-06-07T00:17:35.454Z,101351.93
2019-06-07T00:18:25.167Z,101349.70
2019-06-07T00:19:04.223Z,101347.57
2019-06-07T00:19:47.814Z,101350.42
2019-06-07T00:20:30.632Z,101349.06
2019-06-07T00:21:17.023Z,101346.45
2019-06-07T00:22:17.645Z,101352.36
2019-06-07T00:22:45.346Z,101351.00
2019-06-07T00:23:29.054Z,101348.29
2019-06-07T00:24:14.276Z,101347.94
2019-06-07T00:24:57.518Z,101346.20
2019-06-07T00:25:41.223Z,101337.56
2019-06-07T00:26:24.652Z,101346.20
2019-06-07T00:27:08.411Z,101342.13
2019-06-07T00:27:51.782Z,101339.89
2019-06-07T00:28:35.431Z,101337.66
2019-06-07T00:29:19.565Z,101338.53
2019-06-07T00:30:29.676Z,101339.41
2019-06-07T00:30:51.985Z,101337.18
2019-06-07T00:31:33.186Z,101338.53
2019-06-07T00:32:19.990Z,101337.66
2019-06-07T00:33:02.504Z,101337.66
2019-06-07T00:33:45.530Z,101330.98
2019-06-07T00:34:28.942Z,101330.14
2019-06-07T00:35:15.476Z,101327.05
2019-06-07T00:35:57.884Z,101329.27
2019-06-07T00:36:41.874Z,101322.10
2019-06-07T00:37:25.701Z,101325.30
2019-06-07T00:38:09.402Z,101325.92
2019-06-07T00:38:52.754Z,101331.34
2019-06-07T00:39:36.277Z,101327.77
2019-06-07T00:40:31.499Z,101325.15
2019-06-07T00:41:07.274Z,101322.44
2019-06-07T00:41:51.247Z,101325.53
2019-06-07T00:42:34.546Z,101327.38
2019-06-07T00:43:24.830Z,101322.44
2019-06-07T00:44:03.611Z,101327.47
2019-06-07T00:44:46.464Z,101325.73
2019-06-07T00:45:29.804Z,101325.73
2019-06-07T00:46:15.708Z,101328.45
2019-06-07T00:46:57.637Z,101331.26
2019-06-07T00:47:41.368Z,101328.64
2019-06-07T00:48:32.172Z,101329.52
2019-06-07T00:49:13.273Z,101333.10
2019-06-07T00:49:55.615Z,101335.95
2019-06-07T00:50:39.459Z,101331.00
2019-06-07T00:51:24.052Z,101331.36
2019-06-07T00:52:07.673Z,101328.39
2019-06-07T00:53:14.397Z,101331.98
2019-06-07T00:53:36.685Z,101332.95
2019-06-07T00:54:22.451Z,101324.80
2019-06-07T00:55:08.587Z,101326.16
2019-06-07T00:55:51.679Z,101324.06
2019-06-07T00:56:35.215Z,101327.14
2019-06-07T00:57:21.532Z,101322.71
2019-06-07T00:58:04.987Z,101321.84
2019-06-07T00:59:09.829Z,101318.25
2019-06-07T00:59:33.499Z,101325.04
2019-06-07T01:00:18.327Z,101323.20
2019-06-07T01:01:01.723Z,101323.20
2019-06-07T01:01:44.894Z,101318.25
2019-06-07T01:02:31.195Z,101316.41
2019-06-07T01:03:14.855Z,101322.71
2019-06-07T01:03:58.487Z,101324.42
2019-06-07T01:04:41.960Z,101323.94
2019-06-07T01:05:30.950Z,101327.52
2019-06-07T01:06:12.370Z,101328.48
2019-06-07T01:06:56.107Z,101331.20
2019-06-07T01:07:39.560Z,101327.66
2019-06-07T01:08:27.721Z,101328.48
2019-06-07T01:09:08.709Z,101329.49
2019-06-07T01:09:52.835Z,101331.44
2019-06-07T01:10:53.149Z,101329.20
2019-06-07T01:11:23.561Z,101329.34
2019-06-07T01:12:07.036Z,101328.95
2019-06-07T01:12:50.667Z,101331.28
2019-06-07T01:13:33.897Z,101331.41
2019-06-07T01:14:19.379Z,101325.12
2019-06-07T01:15:03.405Z,101327.34
2019-06-07T01:15:46.559Z,101324.73
2019-06-07T01:16:53.057Z,101325.70
2019-06-07T01:17:39.679Z,101330.77
2019-06-07T01:18:37.454Z,101325.34
2019-06-07T01:18:55.447Z,101324.95
2019-06-07T01:19:39.179Z,101331.73
2019-06-07T01:20:24.370Z,101330.00
2019-06-07T01:21:08.117Z,101331.73
2019-06-07T01:21:51.479Z,101330.87
2019-06-07T01:22:34.627Z,101334.06
2019-06-07T01:23:57.811Z,101331.84
2019-06-07T01:24:11.871Z,101335.52
2019-06-07T01:24:48.845Z,101330.97
2019-06-07T01:25:32.731Z,101329.74
2019-06-07T01:26:18.952Z,101328.87
2019-06-07T01:27:00.607Z,101324.03
2019-06-07T01:27:44.592Z,101325.03
2019-06-07T01:28:30.200Z,101318.60
2019-06-07T01:29:13.152Z,101312.30
2019-06-07T01:29:56.581Z,101314.18
2019-06-07T01:30:40.243Z,101317.73
2019-06-07T01:31:27.539Z,101313.80
2019-06-07T01:32:09.179Z,101325.03
2019-06-07T01:32:52.987Z,101326.00
2019-06-07T01:33:50.486Z,101315.15
2019-06-07T01:34:23.806Z,101314.28
2019-06-07T01:35:07.423Z,101312.05
2019-06-07T01:35:50.294Z,101311.18
2019-06-07T01:36:33.858Z,101311.66
2019-06-07T01:37:20.026Z,101311.18
2019-06-07T01:38:02.160Z,101312.67
2019-06-07T01:38:46.330Z,101301.91
2019-06-07T01:39:31.806Z,101303.66
2019-06-07T01:40:16.993Z,101308.59
2019-06-07T01:40:59.935Z,101301.91
2019-06-07T01:41:43.741Z,101304.24
2019-06-07T01:42:29.452Z,101305.73
2019-06-07T01:43:12.447Z,101301.53
2019-06-07T01:43:56.019Z,101302.02
2019-06-07T01:44:38.932Z,101303.02
2019-06-07T01:45:23.634Z,101312.13
2019-06-07T01:46:07.438Z,101314.45
2019-06-07T01:46:50.305Z,101313.09
2019-06-07T01:47:34.043Z,101315.41
2019-06-07T01:48:21.600Z,101315.94
2019-06-07T01:49:02.953Z,101315.41
2019-06-07T01:49:46.751Z,101315.94
2019-06-07T01:50:30.470Z,101313.22
2019-06-07T01:51:14.531Z,101317.64
2019-06-07T01:51:58.323Z,101311.34
2019-06-07T01:52:41.874Z,101313.70
2019-06-07T01:53:26.429Z,101312.22
2019-06-07T01:54:49.268Z,101313.22
2019-06-07T01:54:58.809Z,101305.57
2019-06-07T01:55:41.165Z,101308.28
2019-06-07T01:56:28.264Z,101304.70
2019-06-07T01:57:30.524Z,101307.89
2019-06-07T01:57:54.682Z,101303.83
2019-06-07T01:58:38.138Z,101302.47
2019-06-07T01:59:23.252Z,101303.44
2019-06-07T02:00:06.865Z,101302.56
2019-06-07T02:00:50.277Z,101302.09
2019-06-07T02:01:35.280Z,101293.69
2019-06-07T02:02:20.057Z,101294.44
2019-06-07T02:03:03.645Z,101290.02
2019-06-07T02:03:47.373Z,101293.56
2019-06-07T02:04:33.180Z,101291.72
2019-06-07T02:05:15.789Z,101285.81
2019-06-07T02:05:59.252Z,101285.42
2019-06-07T02:06:42.750Z,101284.59
2019-06-07T02:07:30.348Z,101286.42
2019-06-07T02:08:11.565Z,101287.40
2019-06-07T02:08:54.324Z,101286.53
2019-06-07T02:09:37.678Z,101282.46
2019-06-07T02:10:24.683Z,101290.11
2019-06-07T02:11:06.075Z,101285.66
2019-06-07T02:11:49.597Z,101285.27
2019-06-07T02:12:42.443Z,101278.62
2019-06-07T02:13:18.776Z,101283.17
2019-06-07T02:14:02.012Z,101279.48
2019-06-07T02:14:45.518Z,101275.04
2019-06-07T02:15:36.160Z,101275.04
2019-06-07T02:16:15.282Z,101279.11
2019-06-07T02:16:59.376Z,101274.65
2019-06-07T02:17:42.640Z,101274.16
2019-06-07T02:18:28.423Z,101272.42
2019-06-07T02:19:11.087Z,101276.97
2019-06-07T02:19:54.362Z,101268.00
2019-06-07T02:20:38.316Z,101268.09
2019-06-07T02:21:24.715Z,101273.52
2019-06-07T02:22:07.225Z,101269.94
2019-06-07T02:22:50.937Z,101274.48
2019-06-07T02:23:34.494Z,101267.71
2019-06-07T02:24:17.511Z,101264.61
2019-06-07T02:25:50.406Z,101261.91
2019-06-07T02:26:32.640Z,101267.33
2019-06-07T02:27:16.451Z,101266.58
2019-06-07T02:28:25.837Z,101259.33
2019-06-07T02:28:45.811Z,101254.87
2019-06-07T02:29:31.897Z,101255.00
2019-06-07T02:31:00.768Z,101255.73
2019-06-07T02:31:44.710Z,101251.67
2019-06-07T02:32:31.735Z,101255.84
2019-06-07T02:33:14.752Z,101249.45
2019-06-07T02:33:58.422Z,101249.93
2019-06-07T02:34:42.099Z,101248.58
2019-06-07T02:35:30.886Z,101243.64
2019-06-07T02:36:11.122Z,101241.92
2019-06-07T02:36:55.250Z,101246.87
2019-06-07T02:37:38.344Z,101241.54
2019-06-07T02:38:23.156Z,101242.51
2019-06-07T02:39:08.225Z,101247.45
2019-06-07T02:39:50.874Z,101237.95
2019-06-07T02:40:37.500Z,101239.31
2019-06-07T02:41:22.935Z,101241.16
2019-06-07T02:42:05.113Z,101237.57
2019-06-07T02:42:48.936Z,101231.41
2019-06-07T02:43:36.693Z,101235.86
2019-06-07T02:44:18.271Z,101235.34
2019-06-07T02:45:02.215Z,101239.93
2019-06-07T02:45:45.779Z,101239.54
2019-06-07T02:46:36.363Z,101238.19
2019-06-07T02:47:14.064Z,101243.61
2019-06-07T02:47:57.595Z,101244.58
2019-06-07T02:48:40.730Z,101249.03
2019-06-07T02:49:28.260Z,101245.55
2019-06-07T02:50:12.929Z,101252.81
2019-06-07T02:50:55.848Z,101251.97
2019-06-07T02:51:41.557Z,101246.16
2019-06-07T02:52:29.342Z,101248.88
2019-06-07T02:53:09.986Z,101239.48
2019-06-07T02:53:53.583Z,101243.06
2019-06-07T02:54:40.482Z,101240.35
2019-06-07T02:55:24.886Z,101237.25
2019-06-07T02:56:58.727Z,101242.33
2019-06-07T02:57:41.512Z,101241.45
2019-06-07T02:58:26.191Z,101239.71
2019-06-07T02:59:10.430Z,101233.42
2019-06-07T03:00:06.526Z,101234.38
2019-06-07T03:01:06.883Z,101234.29
2019-06-07T03:01:39.463Z,101232.55
2019-06-07T03:02:17.907Z,101233.91
2019-06-07T03:03:01.589Z,101227.22
2019-06-07T03:03:45.380Z,101229.93
2019-06-07T03:04:29.510Z,101229.93
2019-06-07T03:05:14.597Z,101229.41
2019-06-07T03:05:58.309Z,101227.22
2019-06-07T03:06:43.777Z,101235.35
2019-06-07T03:07:28.299Z,101234.48
2019-06-07T03:08:14.157Z,101237.67
2019-06-07T03:08:56.855Z,101236.32
2019-06-07T03:09:40.886Z,101226.83
2019-06-07T03:10:28.131Z,101228.19
2019-06-07T03:11:09.207Z,101229.16
2019-06-07T03:11:52.730Z,101223.73
2019-06-07T03:12:39.246Z,101220.16
2019-06-07T03:13:22.342Z,101223.73
2019-06-07T03:14:06.035Z,101226.06
2019-06-07T03:14:49.925Z,101217.93
2019-06-07T03:15:44.649Z,101216.58
2019-06-07T03:16:19.982Z,101222.87
2019-06-07T03:17:21.150Z,101216.96
2019-06-07T03:18:08.951Z,101221.02
2019-06-07T03:18:56.041Z,101220.28
2019-06-07T03:19:40.811Z,101223.00
2019-06-07T03:20:27.398Z,101220.87
2019-06-07T03:21:15.594Z,101219.52
2019-06-07T03:21:58.810Z,101225.90
2019-06-07T03:22:43.439Z,101226.42
2019-06-07T03:23:29.998Z,101229.61
2019-06-07T03:24:14.034Z,101227.39
2019-06-07T03:24:57.198Z,101232.32
2019-06-07T03:25:40.981Z,101237.74
2019-06-07T03:26:27.439Z,101232.32
2019-06-07T03:27:33.943Z,101235.03
2019-06-07T03:27:56.343Z,101233.29
2019-06-07T03:28:39.574Z,101236.39
2019-06-07T03:29:23.419Z,101243.52
2019-06-07T03:30:36.249Z,101244.52
2019-06-07T03:31:01.955Z,101242.77
2019-06-07T03:31:41.642Z,101246.84
2019-06-07T03:32:22.452Z,101248.20
2019-06-07T03:33:05.379Z,101244.13
2019-06-07T03:33:48.966Z,101245.97
2019-06-07T03:34:39.219Z,101248.20
2019-06-07T03:35:17.544Z,101254.09
2019-06-07T03:36:13.053Z,101250.52
2019-06-07T03:36:46.336Z,101252.84
2019-06-07T03:37:30.689Z,101252.00
2019-06-07T03:38:14.592Z,101253.36
2019-06-07T03:38:58.815Z,101251.48
2019-06-07T03:39:42.613Z,101251.61
2019-06-07T03:40:26.693Z,101253.84
2019-06-07T03:41:10.400Z,101246.29
2019-06-07T03:42:05.615Z,101250.74
2019-06-07T03:42:40.137Z,101256.16
2019-06-07T03:43:23.729Z,101255.20
2019-06-07T03:44:07.012Z,101254.33
2019-06-07T03:44:50.468Z,101259.61
2019-06-07T03:45:37.914Z,101256.16
2019-06-07T03:46:19.242Z,101250.27
2019-06-07T03:47:03.147Z,101249.78
2019-06-07T03:47:47.174Z,101252.09
2019-06-07T03:48:32.257Z,101250.74
2019-06-07T03:49:15.395Z,101251.70
2019-06-07T03:49:58.664Z,101251.70
2019-06-07T03:50:42.562Z,101247.26
2019-06-07T03:51:27.405Z,101249.12
2019-06-07T03:52:12.039Z,101240.13
2019-06-07T03:52:55.160Z,101244.19
2019-06-07T03:53:40.827Z,101245.16
2019-06-07T03:54:24.486Z,101238.38
2019-06-07T03:55:07.500Z,101247.88
2019-06-07T03:55:51.045Z,101243.41
2019-06-07T03:56:36.039Z,101244.77
2019-06-07T03:57:19.878Z,101236.77
2019-06-07T03:58:31.566Z,101244.90
2019-06-07T03:58:50.439Z,101240.32
2019-06-07T03:59:38.664Z,101242.67
2019-06-07T04:00:19.145Z,101242.19
2019-06-07T04:01:02.893Z,101249.45
2019-06-07T04:01:45.986Z,101252.52
2019-06-07T04:02:30.371Z,101249.93
2019-06-07T04:03:32.822Z,101255.22
2019-06-07T04:03:59.454Z,101252.52
2019-06-07T04:04:43.104Z,101247.61
2019-06-07T04:05:28.246Z,101253.13
2019-06-07T04:06:11.809Z,101250.41
2019-06-07T04:06:55.407Z,101258.06
2019-06-07T04:07:44.126Z,101254.96
2019-06-07T04:08:24.830Z,101252.73
2019-06-07T04:09:09.016Z,101256.80
2019-06-07T04:09:52.424Z,101254.58
2019-06-07T04:10:53.404Z,101260.48
2019-06-07T04:11:20.847Z,101254.70
2019-06-07T04:12:04.231Z,101259.34
2019-06-07T04:12:47.236Z,101261.58
2019-06-07T04:13:34.810Z,101258.77
2019-06-07T04:14:15.839Z,101258.77
2019-06-07T04:14:58.561Z,101262.34
2019-06-07T04:15:42.405Z,101264.54
2019-06-07T04:16:26.127Z,101265.41
2019-06-07T04:17:08.912Z,101265.89
2019-06-07T04:18:01.941Z,101267.25
2019-06-07T04:18:40.893Z,101273.06
2019-06-07T04:19:22.243Z,101264.54
2019-06-07T04:20:09.531Z,101264.54
2019-06-07T04:20:52.766Z,101267.77
2019-06-07T04:21:39.527Z,101276.25
2019-06-07T04:22:21.994Z,101269.96
2019-06-07T04:23:25.063Z,101269.48
2019-06-07T04:23:50.955Z,101269.00
2019-06-07T04:24:38.488Z,101261.25
2019-06-07T04:25:19.485Z,101268.03
2019-06-07T04:26:02.633Z,101268.03
2019-06-07T04:26:46.943Z,101263.48
2019-06-07T04:27:30.669Z,101269.29
2019-06-07T04:28:14.265Z,101267.06
2019-06-07T04:30:05.942Z,101272.09
2019-06-07T04:30:44.758Z,101263.97
2019-06-07T04:31:28.397Z,101259.52
2019-06-07T04:32:11.908Z,101271.13
2019-06-07T04:32:55.119Z,101273.06
2019-06-07T04:33:41.308Z,101271.70
2019-06-07T04:34:24.260Z,101272.09
2019-06-07T04:35:07.222Z,101271.70
2019-06-07T04:35:50.739Z,101272.58
2019-06-07T04:36:45.586Z,101274.80
2019-06-07T04:37:19.106Z,101271.61
2019-06-07T04:38:03.301Z,101274.32
2019-06-07T04:38:47.084Z,101276.16
2019-06-07T04:39:33.591Z,101278.25
2019-06-07T04:40:15.235Z,101279.25
2019-06-07T04:40:59.013Z,101272.48
2019-06-07T04:41:42.332Z,101282.45
2019-06-07T04:42:26.293Z,101273.45
2019-06-07T04:43:10.305Z,101277.52
2019-06-07T04:43:53.200Z,101283.31
2019-06-07T04:44:39.290Z,101279.83
2019-06-07T04:45:33.628Z,101281.58
2019-06-07T04:46:07.061Z,101286.61
2019-06-07T04:46:51.517Z,101287.48
2019-06-07T04:47:37.251Z,101284.28
2019-06-07T04:48:21.553Z,101281.58
2019-06-07T04:49:05.195Z,101282.06
2019-06-07T04:49:49.754Z,101287.00
2019-06-07T04:50:35.397Z,101292.32
2019-06-07T04:51:18.194Z,101288.61
2019-06-07T04:52:01.672Z,101284.06
2019-06-07T04:52:45.726Z,101281.97
2019-06-07T04:53:30.847Z,101280.13
2019-06-07T04:54:14.911Z,101283.67
2019-06-07T04:54:57.893Z,101281.97
2019-06-07T04:55:41.943Z,101282.45
2019-06-07T04:56:25.830Z,101281.97
2019-06-07T04:57:08.685Z,101285.64
2019-06-07T04:57:52.349Z,101281.19
2019-06-07T04:58:38.154Z,101284.37
2019-06-07T05:00:00.772Z,101283.02
2019-06-07T05:00:46.668Z,101283.02
2019-06-07T05:00:58.966Z,101281.19
2019-06-07T05:01:41.409Z,101283.51
2019-06-07T05:02:22.533Z,101280.80
2019-06-07T05:03:06.561Z,101281.19
2019-06-07T05:03:49.694Z,101280.70
2019-06-07T05:04:34.975Z,101280.22
2019-06-07T05:05:18.288Z,101287.39
2019-06-07T05:06:01.491Z,101283.67
2019-06-07T05:06:44.865Z,101286.77
2019-06-07T05:07:30.966Z,101286.77
2019-06-07T05:08:27.616Z,101283.09
2019-06-07T05:09:00.179Z,101285.33
2019-06-07T05:09:43.864Z,101284.23
2019-06-07T05:10:26.778Z,101289.07
2019-06-07T05:11:10.803Z,101285.36
2019-06-07T05:11:54.644Z,101277.62
2019-06-07T05:12:40.475Z,101283.04
2019-06-07T05:13:23.020Z,101281.30
2019-06-07T05:14:06.486Z,101288.69
2019-06-07T05:14:49.631Z,101285.20
2019-06-07T05:15:34.591Z,101283.97
2019-06-07T05:16:19.225Z,101284.06
2019-06-07T05:17:02.231Z,101280.97
2019-06-07T05:17:45.778Z,101284.19
2019-06-07T05:18:29.666Z,101281.48
2019-06-07T05:19:12.381Z,101281.97
2019-06-07T05:19:55.953Z,101276.73
2019-06-07T05:20:41.499Z,101279.58
2019-06-07T05:21:24.585Z,101281.63
2019-06-07T05:22:08.148Z,101284.92
2019-06-07T05:22:51.844Z,101281.55
2019-06-07T05:24:19.543Z,101273.97
2019-06-07T05:25:03.033Z,101276.28
2019-06-07T05:25:46.358Z,101271.09
2019-06-07T05:26:30.496Z,101267.63
2019-06-07T05:27:15.094Z,101268.81
2019-06-07T05:27:57.908Z,101267.65
2019-06-07T05:28:43.062Z,101268.64
2019-06-07T05:29:26.759Z,101270.19
2019-06-07T05:30:36.520Z,101264.41
2019-06-07T05:31:04.793Z,101264.59
2019-06-07T05:31:44.960Z,101259.40
2019-06-07T05:32:24.990Z,101260.00
2019-06-07T05:33:08.970Z,101260.00
2019-06-07T05:33:52.515Z,101250.75
2019-06-07T05:34:37.004Z,101255.30
2019-06-07T05:35:20.921Z,101253.64
2019-06-07T05:36:04.557Z,101251.32
2019-06-07T05:37:08.479Z,101248.83
2019-06-07T05:37:33.828Z,101253.82
2019-06-07T05:38:18.043Z,101249.77
2019-06-07T05:39:01.130Z,101255.78
2019-06-07T05:39:46.486Z,101250.24
2019-06-07T05:40:36.647Z,101250.24
2019-06-07T05:41:19.940Z,101243.60
2019-06-07T05:42:03.722Z,101246.30
2019-06-07T05:42:47.261Z,101253.08
2019-06-07T05:43:35.030Z,101248.50
2019-06-07T05:44:15.986Z,101249.38
2019-06-07T05:44:59.528Z,101248.50
2019-06-07T05:45:46.452Z,101250.37
2019-06-07T05:46:27.699Z,101248.89
2019-06-07T05:47:11.424Z,101247.05
2019-06-07T05:47:54.956Z,101246.52
2019-06-07T05:48:41.705Z,101243.80
2019-06-07T05:49:23.790Z,101245.91
2019-06-07T05:50:37.893Z,101245.42
2019-06-07T05:50:56.869Z,101241.75
2019-06-07T05:51:41.596Z,101246.95
2019-06-07T05:52:22.058Z,101240.57
2019-06-07T05:53:06.472Z,101249.34
2019-06-07T05:53:50.157Z,101244.28
2019-06-07T05:54:35.110Z,101247.77
2019-06-07T05:55:18.910Z,101241.48
2019-06-07T05:56:02.744Z,101241.39
2019-06-07T05:56:46.158Z,101239.56
2019-06-07T05:57:29.609Z,101243.11
2019-06-07T05:58:12.826Z,101245.33
2019-06-07T05:58:55.870Z,101242.14
2019-06-07T05:59:43.484Z,101246.98
2019-06-07T06:00:25.255Z,101244.27
2019-06-07T06:01:42.102Z,101242.31
2019-06-07T06:02:02.639Z,101229.16
2019-06-07T06:02:56.756Z,101238.89
2019-06-07T06:03:24.182Z,101234.73
2019-06-07T06:04:07.848Z,101236.00
2019-06-07T06:04:51.987Z,101238.58
2019-06-07T06:05:41.613Z,101237.48
2019-06-07T06:06:20.463Z,101235.66
2019-06-07T06:07:03.832Z,101234.69
2019-06-07T06:07:50.527Z,101238.17
2019-06-07T06:08:36.584Z,101241.72
2019-06-07T06:09:18.936Z,101237.56
2019-06-07T06:10:01.992Z,101236.59
2019-06-07T06:10:48.655Z,101237.95
2019-06-07T06:11:45.621Z,101232.53
2019-06-07T06:12:33.385Z,101239.31
2019-06-07T06:13:01.151Z,101231.56
2019-06-07T06:14:05.665Z,101245.47
2019-06-07T06:14:30.562Z,101241.79
2019-06-07T06:15:15.414Z,101254.76
2019-06-07T06:16:02.124Z,101252.41
2019-06-07T06:16:47.971Z,101245.15
2019-06-07T06:17:29.627Z,101251.34
2019-06-07T06:18:12.912Z,101252.57
2019-06-07T06:18:56.061Z,101256.16
2019-06-07T06:19:40.658Z,101252.96
2019-06-07T06:20:32.603Z,101249.28
2019-06-07T06:21:19.355Z,101255.06
2019-06-07T06:21:55.355Z,101250.03
2019-06-07T06:22:41.616Z,101249.32
2019-06-07T06:23:24.394Z,101245.16
2019-06-07T06:24:08.062Z,101248.61
2019-06-07T06:25:29.798Z,101245.32
2019-06-07T06:25:38.628Z,101248.77
2019-06-07T06:26:22.809Z,101235.52
2019-06-07T06:27:28.417Z,101243.80
2019-06-07T06:28:12.279Z,101240.00
2019-06-07T06:28:37.215Z,101236.61
2019-06-07T06:29:21.357Z,101234.45
2019-06-07T06:30:07.404Z,101234.45
2019-06-07T06:30:50.873Z,101231.13
2019-06-07T06:31:34.285Z,101223.28
2019-06-07T06:33:03.381Z,101226.88
2019-06-07T06:33:49.554Z,101218.27
2019-06-07T06:34:31.784Z,101222.59
2019-06-07T06:35:15.565Z,101214.84
2019-06-07T06:35:58.834Z,101216.58
2019-06-07T06:36:45.193Z,101221.03
2019-06-07T06:37:27.763Z,101211.89
2019-06-07T06:38:11.013Z,101219.06
2019-06-07T06:38:53.981Z,101216.25
2019-06-07T06:39:37.541Z,101219.22
2019-06-07T06:40:21.202Z,101220.57
2019-06-07T06:41:15.054Z,101219.70
2019-06-07T06:42:00.807Z,101218.34
2019-06-07T06:42:35.266Z,101221.54
2019-06-07T06:43:18.604Z,101220.80
2019-06-07T06:44:02.048Z,101217.32
2019-06-07T06:44:47.157Z,101223.84
2019-06-07T06:45:30.240Z,101217.55
2019-06-07T06:46:14.091Z,101215.81
2019-06-07T06:46:58.498Z,101215.07
2019-06-07T06:47:43.277Z,101217.39
2019-06-07T06:48:27.467Z,101211.62
2019-06-07T06:49:11.049Z,101216.91
2019-06-07T06:49:54.724Z,101214.59
2019-06-07T06:50:38.745Z,101212.36
2019-06-07T06:51:22.402Z,101209.27
2019-06-07T06:52:05.777Z,101199.77
2019-06-07T06:52:54.214Z,101203.84
2019-06-07T06:53:34.832Z,101203.36
2019-06-07T06:54:37.319Z,101202.87
2019-06-07T06:55:03.591Z,101199.19
2019-06-07T06:55:49.410Z,101196.09
2019-06-07T06:56:32.307Z,101197.83
2019-06-07T06:57:19.962Z,101187.09
2019-06-07T06:58:01.361Z,101188.92
2019-06-07T06:59:39.671Z,101193.48
2019-06-07T07:00:16.279Z,101187.57
2019-06-07T07:01:06.352Z,101196.09
2019-06-07T07:01:48.727Z,101186.22
2019-06-07T07:02:30.539Z,101191.54
2019-06-07T07:04:12.468Z,101188.34
2019-06-07T07:04:48.684Z,101196.34
2019-06-07T07:05:31.730Z,101194.98
2019-06-07T07:06:26.052Z,101190.92
2019-06-07T07:07:00.935Z,101194.50
2019-06-07T07:07:45.409Z,101194.11
2019-06-07T07:08:29.735Z,101189.70
2019-06-07T07:09:13.294Z,101186.12
2019-06-07T07:09:59.277Z,101192.77
2019-06-07T07:10:48.655Z,101196.09
2019-06-07T07:11:31.891Z,101192.13
2019-06-07T07:12:15.212Z,101189.55
2019-06-07T07:12:58.897Z,101192.26
2019-06-07T07:13:44.463Z,101191.77
2019-06-07T07:14:27.059Z,101192.26
2019-06-07T07:15:19.031Z,101184.12
2019-06-07T07:16:02.376Z,101190.90
2019-06-07T07:16:49.611Z,101189.06
2019-06-07T07:17:47.646Z,101184.99
2019-06-07T07:18:16.688Z,101182.63
2019-06-07T07:18:59.758Z,101185.34
2019-06-07T07:19:46.605Z,101188.05
2019-06-07T07:20:28.979Z,101190.56
2019-06-07T07:21:12.064Z,101191.16
2019-06-07T07:21:55.711Z,101190.67
2019-06-07T07:22:39.759Z,101190.67
2019-06-07T07:23:23.282Z,101193.48
2019-06-07T07:24:21.048Z,101187.22
2019-06-07T07:24:54.524Z,101190.90
2019-06-07T07:25:36.929Z,101190.41
2019-06-07T07:26:20.548Z,101199.03
2019-06-07T07:27:04.455Z,101204.45
2019-06-07T07:27:49.547Z,101191.97
2019-06-07T07:28:32.602Z,101199.27
2019-06-07T07:29:15.915Z,101189.00
2019-06-07T07:30:34.820Z,101190.45
2019-06-07T07:30:55.237Z,101195.87
2019-06-07T07:31:39.015Z,101189.48
2019-06-07T07:32:22.360Z,101188.62
2019-06-07T07:33:07.136Z,101192.09
2019-06-07T07:34:37.137Z,101183.00
2019-06-07T07:35:21.044Z,101182.48
2019-06-07T07:36:18.931Z,101183.98
2019-06-07T07:36:52.922Z,101177.84
2019-06-07T07:37:35.554Z,101179.48
2019-06-07T07:38:19.411Z,101172.22
2019-06-07T07:39:05.067Z,101173.94
2019-06-07T07:39:51.190Z,101173.09
2019-06-07T07:40:56.797Z,101176.06
2019-06-07T07:41:18.315Z,101173.25
2019-06-07T07:42:20.313Z,101166.47
2019-06-07T07:42:50.436Z,101176.31
2019-06-07T07:43:32.972Z,101167.30
2019-06-07T07:44:16.503Z,101169.28
2019-06-07T07:45:00.250Z,101166.57
2019-06-07T07:45:46.759Z,101172.48
2019-06-07T07:46:30.543Z,101166.57
2019-06-07T07:47:15.324Z,101163.96
2019-06-07T07:48:14.180Z,101169.03
2019-06-07T07:48:44.039Z,101165.80
2019-06-07T07:49:28.155Z,101172.58
2019-06-07T07:50:11.131Z,101169.03
2019-06-07T07:51:00.390Z,101165.45
2019-06-07T07:51:39.595Z,101172.58
2019-06-07T07:52:22.845Z,101165.80
2019-06-07T07:53:06.744Z,101173.09
2019-06-07T07:54:02.070Z,101174.94
2019-06-07T07:54:35.868Z,101166.32
2019-06-07T07:55:19.919Z,101172.22
2019-06-07T07:56:04.206Z,101173.58
2019-06-07T07:56:48.959Z,101167.77
2019-06-07T07:57:32.710Z,101165.06
2019-06-07T07:58:16.188Z,101164.97
2019-06-07T07:59:01.998Z,101162.25
2019-06-07T08:00:01.526Z,101161.38
2019-06-07T08:00:52.479Z,101160.89
2019-06-07T08:01:15.354Z,101163.09
2019-06-07T08:01:59.218Z,101160.77
2019-06-07T08:02:42.848Z,101159.02
2019-06-07T08:03:25.832Z,101163.09
2019-06-07T08:04:09.415Z,101155.95
2019-06-07T08:05:20.663Z,101155.47
2019-06-07T08:05:42.873Z,101155.57
2019-06-07T08:06:24.207Z,101153.25
2019-06-07T08:07:07.910Z,101155.95
2019-06-07T08:07:55.441Z,101155.09
2019-06-07T08:08:36.561Z,101145.11
2019-06-07T08:09:19.747Z,101150.15
2019-06-07T08:10:04.354Z,101155.95
2019-06-07T08:10:51.987Z,101145.22
2019-06-07T08:11:34.032Z,101152.96
2019-06-07T08:12:16.666Z,101149.66
2019-06-07T08:13:22.127Z,101153.34
2019-06-07T08:13:45.739Z,101150.15
2019-06-07T08:14:28.990Z,101156.93
2019-06-07T08:15:12.516Z,101146.08
2019-06-07T08:15:58.764Z,101151.51
2019-06-07T08:16:40.449Z,101150.89
2019-06-07T08:17:23.935Z,101148.94
2019-06-07T08:18:07.468Z,101145.75
2019-06-07T08:18:53.268Z,101146.62
2019-06-07T08:19:35.854Z,101150.06
2019-06-07T08:20:20.473Z,101146.00
2019-06-07T08:21:21.593Z,101141.93
2019-06-07T08:21:49.060Z,101148.22
2019-06-07T08:22:32.608Z,101147.36
2019-06-07T08:23:15.563Z,101142.80
2019-06-07T08:24:04.137Z,101138.34
2019-06-07T08:24:44.591Z,101140.19
2019-06-07T08:25:27.617Z,101144.26
2019-06-07T08:26:11.355Z,101146.97
2019-06-07T08:27:18.294Z,101143.91
2019-06-07T08:27:40.116Z,101143.03
2019-06-07T08:28:24.222Z,101131.91
2019-06-07T08:29:08.157Z,101135.39
2019-06-07T08:30:14.354Z,101140.81
2019-06-07T08:30:58.384Z,101136.36
2019-06-07T08:31:22.596Z,101133.64
2019-06-07T08:32:05.720Z,101137.33
2019-06-07T08:32:54.945Z,101129.58